< < Back
Terminal Aerodrome Forecast


Current Version              Previous Versions:   1  2  3  4  5  6  7  8  9  

Terminal Aerodrome Forecast

011
FTUS44 KBMX 301000 AAA
TAFBHM
TAF AMD
KBHM 301047Z 3011/3106 VRB04KT P6SM BKN020
     FM301500 16007KT P6SM BKN035
     FM301800 18010KT P6SM VCTS SCT050CB BKN150
     FM310100 VRB04KT P6SM BKN050=

Latest METAR

736
SAUS70 KWBC 301200 RRN
MTRBHM
METAR KBHM 301153Z 14003KT 10SM BKN150 OVC250 26/22 A3012 RMK AO2 SLP190
T02560217 10278 20256 53011


USA.gov is the U.S. government's official web portal to all federal, state and local government web resources and services.